Edmond, Kansas
Current Conditions -  °F | °C
As of 3:53 PM on Monday 24 Nov 2014 (Local Time) from KHLC Reporting Station
Clear Clear  
Wind Chill: 43°   Ceiling: Unl
Heat Index: 49°   Visibility: 10mi
Dew Point: 16°   Wind: 15mph
Humidity: 27%   Direction: 350°N
Pressure: 29.96"   Gusts: 22mph
Location:  39.68°N, 99.7571°W
Report Text: KHLC 242153Z AUTO 35013G19KT 10SM CLR 09/M09 A2996 RMK AO2 SLP153 T00941089
Loading
Personal Weather Stations






























Interactive Weather Map New forecast layout! Learn more

10-Day Weather Forecast

Advertisements
Track Severe Weather on mobile